Eagle Arrow — 3FJA2 — position and weather

sailwx.info

Track history (hours):
 
Tides and Currents Weather Stations Pressure Air Temp Water Temp Dewpoint Dewpoint Depression Visibility Wind Speed Wind Dir Waves Ship Positions

Eagle Arrow

Last reported at 2018-Jul-18 16:51 UTC. Time now 2018-Jul-22 01:13 UTC.
Position N 34°24' E 134°13'.

; draft 10.5 m.

Type: Cargo ship. MMSI: 353414000.

Date/timePositionNaut miles runAvg speedWind from/ knotsBaromVisibWave heightAir tempDewpointWater temp
2018-Jul-18 16:51N 34°24' E 134°13'412.6
2018-Jul-18 16:30N 34°25' E 134°19'612.2
2018-Jul-18 16:01N 34°26' E 134°26'611.4
2018-Jul-18 15:30N 34°29' E 134°32'611.8
2018-Jul-18 15:00N 34°31' E 134°39'612.3
2018-Jul-18 14:30N 34°33' E 134°46'1312.9
2018-Jul-18 13:28N 34°37' E 135°01'510.7
2018-Jul-18 13:00N 34°35' E 135°06'2 5.0
2018-Jul-18 12:30N 34°33' E 135°08'4 7.5
2018-Jul-18 12:00N 34°29' E 135°07'611.8
2018-Jul-18 11:30N 34°24' E 135°04'1111.1
2018-Jul-18 10:30N 34°13' E 134°60'5 9.4
2018-Jul-18 10:01N 34°09' E 134°60'3 6.2
2018-Jul-18 09:30N 34°06' E 134°60'3 6.3
2018-Jul-18 09:00N 34°03' E 134°60'3 6.8
2018-Jul-18 08:31N 33°59' E 134°59'510.2
2018-Jul-18 08:00N 33°54' E 134°59'611.2
2018-Jul-18 07:30N 33°48' E 134°59'  
Track history (hours):
 
Tides and Currents Weather Stations Pressure Air Temp Water Temp Dewpoint Dewpoint Depression Visibility Wind Speed Wind Dir Waves Ship Positions

Eagle Arrow

Last reported at 2018-Jul-18 16:51 UTC. Time now 2018-Jul-22 01:13 UTC.
Position N 34°24' E 134°13'.

; draft 10.5 m.

Type: Cargo ship. MMSI: 353414000.

Date/timePositionNaut miles runAvg speedWind from/ knotsBaromVisibWave heightAir tempDewpointWater temp
2018-Jul-18 16:51N 34°24' E 134°13'412.6
2018-Jul-18 16:30N 34°25' E 134°19'612.2
2018-Jul-18 16:01N 34°26' E 134°26'611.4
2018-Jul-18 15:30N 34°29' E 134°32'611.8
2018-Jul-18 15:00N 34°31' E 134°39'612.3
2018-Jul-18 14:30N 34°33' E 134°46'1312.9
2018-Jul-18 13:28N 34°37' E 135°01'510.7
2018-Jul-18 13:00N 34°35' E 135°06'2 5.0
2018-Jul-18 12:30N 34°33' E 135°08'4 7.5
2018-Jul-18 12:00N 34°29' E 135°07'611.8
2018-Jul-18 11:30N 34°24' E 135°04'1111.1
2018-Jul-18 10:30N 34°13' E 134°60'5 9.4
2018-Jul-18 10:01N 34°09' E 134°60'3 6.2
2018-Jul-18 09:30N 34°06' E 134°60'3 6.3
2018-Jul-18 09:00N 34°03' E 134°60'3 6.8
2018-Jul-18 08:31N 33°59' E 134°59'510.2
2018-Jul-18 08:00N 33°54' E 134°59'611.2
2018-Jul-18 07:30N 33°48' E 134°59'  

Dump ship's entire track history